Time;durP1;ratioP1;P1;durP2;ratioP2;P2;SDS_P1;SDS_P2;PMS_P1;PMS_P2;Temp;Humidity;BMP_temperature;BMP_pressure;BME280_temperature;BME280_humidity;BME280_pressure;Samples;Min_cycle;Max_cycle;Signal;HPM_P1;HPM_P2
2023/08/09 00:00:48;;;;;;;10.00;2.10;;;12.60;99.90;;;;;;5066049;28;20036;-79
2023/08/09 00:03:14;;;;;;;5.88;1.80;;;12.50;99.90;;;;;;5063534;28;20941;-79
2023/08/09 00:05:40;;;;;;;7.18;1.80;;;12.60;99.90;;;;;;5040933;28;20024;-79
2023/08/09 00:08:06;;;;;;;8.82;1.95;;;12.60;99.90;;;;;;5066942;28;20036;-79
2023/08/09 00:10:35;;;;;;;7.40;1.60;;;12.50;99.90;;;;;;5067431;28;20028;-78
2023/08/09 00:13:01;;;;;;;7.60;2.17;;;12.50;99.90;;;;;;5050158;28;20047;-78
2023/08/09 00:15:27;;;;;;;4.07;1.45;;;12.50;99.90;;;;;;5063599;28;20036;-78
2023/08/09 00:17:52;;;;;;;9.65;2.10;;;12.50;99.90;;;;;;5065522;28;20535;-79
2023/08/09 00:20:20;;;;;;;8.23;1.90;;;12.50;99.90;;;;;;5032100;28;20036;-79
2023/08/09 00:22:46;;;;;;;8.57;1.60;;;12.40;99.90;;;;;;5051407;28;20036;-80
2023/08/09 00:25:12;;;;;;;5.10;1.50;;;12.40;99.90;;;;;;5069852;28;20036;-79
2023/08/09 00:27:38;;;;;;;4.97;1.60;;;12.40;99.90;;;;;;5045372;28;20127;-79
2023/08/09 00:30:05;;;;;;;6.07;1.73;;;12.40;99.90;;;;;;5067781;28;20109;-79
2023/08/09 00:32:32;;;;;;;6.15;1.88;;;12.30;99.90;;;;;;5048248;28;20039;-79
2023/08/09 00:34:57;;;;;;;6.97;2.03;;;12.40;99.90;;;;;;5068503;28;20298;-79
2023/08/09 00:37:23;;;;;;;5.55;1.70;;;12.30;99.90;;;;;;5052224;28;20058;-79
2023/08/09 00:39:49;;;;;;;3.92;1.42;;;12.30;99.90;;;;;;5069507;28;20416;-79
2023/08/09 00:42:15;;;;;;;6.85;1.70;;;12.30;99.90;;;;;;5051070;28;20060;-79
2023/08/09 00:44:41;;;;;;;6.72;1.70;;;12.30;99.90;;;;;;5068385;28;20120;-79
2023/08/09 00:47:09;;;;;;;10.02;1.98;;;12.30;99.90;;;;;;5065265;28;20450;-79
2023/08/09 00:49:35;;;;;;;7.13;1.80;;;12.20;99.90;;;;;;5048150;28;20069;-79
2023/08/09 00:52:01;;;;;;;8.77;2.00;;;12.20;99.90;;;;;;5069948;28;20086;-79
2023/08/09 00:54:27;;;;;;;7.88;2.05;;;12.20;99.90;;;;;;5069652;28;20044;-79
2023/08/09 00:56:54;;;;;;;6.13;2.00;;;12.20;99.90;;;;;;5050409;28;20064;-79
2023/08/09 00:59:20;;;;;;;5.47;1.60;;;12.20;99.90;;;;;;5068112;28;20043;-79
2023/08/09 01:01:46;;;;;;;5.57;1.67;;;12.20;99.90;;;;;;5066759;28;20032;-79
2023/08/09 01:04:11;;;;;;;10.70;2.05;;;12.20;99.90;;;;;;5035568;28;20155;-79
2023/08/09 01:06:46;;;;;;;5.28;1.65;;;12.20;99.90;;;;;;5052350;28;20132;-79
2023/08/09 01:09:42;;;;;;;5.93;1.70;;;12.10;99.90;;;;;;5052588;28;20056;-79
2023/08/09 01:12:14;;;;;;;5.60;1.70;;;12.10;99.90;;;;;;5063965;28;20079;-79
2023/08/09 01:14:45;;;;;;;6.30;1.85;;;12.10;99.90;;;;;;5063585;28;20180;-79
2023/08/09 01:17:13;;;;;;;5.40;1.67;;;12.10;99.90;;;;;;5062947;28;20450;-79
2023/08/09 01:19:42;;;;;;;6.13;1.90;;;12.10;99.90;;;;;;5052139;28;20126;-79
2023/08/09 01:22:15;;;;;;;4.88;1.50;;;12.10;99.90;;;;;;5033653;28;20370;-79
2023/08/09 01:24:42;;;;;;;5.53;2.00;;;12.10;99.90;;;;;;5037768;28;20039;-79
2023/08/09 01:27:08;;;;;;;7.13;1.95;;;12.00;99.90;;;;;;5067159;28;20094;-79
2023/08/09 01:29:35;;;;;;;6.20;1.80;;;12.00;99.90;;;;;;5064463;28;20040;-79
2023/08/09 01:32:01;;;;;;;4.82;1.60;;;12.00;99.90;;;;;;5035123;28;20043;-78
2023/08/09 01:34:27;;;;;;;7.18;1.60;;;12.00;99.90;;;;;;5027909;28;20551;-79
2023/08/09 01:36:56;;;;;;;6.65;1.77;;;12.00;99.90;;;;;;5031018;28;20044;-79
2023/08/09 01:39:26;;;;;;;6.00;1.90;;;12.00;99.90;;;;;;5061756;28;20048;-79
2023/08/09 01:41:52;;;;;;;5.25;1.65;;;12.00;99.90;;;;;;5048203;28;20413;-79
2023/08/09 01:44:19;;;;;;;5.80;1.90;;;11.90;99.90;;;;;;5052438;28;20032;-79
2023/08/09 01:46:46;;;;;;;6.07;1.67;;;12.00;99.90;;;;;;5041827;28;20047;-80
2023/08/09 01:49:15;;;;;;;5.97;1.70;;;12.00;99.90;;;;;;5032831;28;20047;-79
2023/08/09 01:51:41;;;;;;;6.10;1.73;;;11.90;99.90;;;;;;5038787;28;20043;-79
2023/08/09 01:54:08;;;;;;;5.07;1.75;;;12.00;99.90;;;;;;5049087;28;20040;-79
2023/08/09 01:56:35;;;;;;;5.53;1.80;;;12.00;99.90;;;;;;5049043;28;20040;-79
2023/08/09 01:59:01;;;;;;;7.32;1.90;;;11.90;99.90;;;;;;5050214;28;20063;-79
2023/08/09 02:01:27;;;;;;;4.85;1.70;;;11.90;99.90;;;;;;5065281;28;20622;-78
2023/08/09 02:03:53;;;;;;;6.47;1.83;;;11.90;99.90;;;;;;5050960;28;20075;-78
2023/08/09 02:06:19;;;;;;;8.20;1.63;;;11.90;99.90;;;;;;5068140;28;20126;-80
2023/08/09 02:08:45;;;;;;;9.02;2.00;;;11.90;99.90;;;;;;5066737;28;20119;-79
2023/08/09 02:11:11;;;;;;;5.22;1.90;;;11.90;99.90;;;;;;5034503;28;20043;-79
2023/08/09 02:13:38;;;;;;;5.90;1.80;;;11.90;99.90;;;;;;5049732;28;20047;-79
2023/08/09 02:16:05;;;;;;;5.72;1.70;;;11.90;99.90;;;;;;5048111;28;20508;-79
2023/08/09 02:18:31;;;;;;;5.68;1.77;;;11.90;99.90;;;;;;5044438;28;20068;-79
2023/08/09 02:20:59;;;;;;;6.60;1.80;;;11.90;99.90;;;;;;5067027;28;20036;-79
2023/08/09 02:23:25;;;;;;;4.32;1.60;;;11.90;99.90;;;;;;5050596;28;20046;-79
2023/08/09 02:25:54;;;;;;;7.25;1.77;;;11.90;99.90;;;;;;5067920;28;20052;-79
2023/08/09 02:28:20;;;;;;;6.03;1.77;;;11.90;99.90;;;;;;5048846;28;20138;-79
2023/08/09 02:30:46;;;;;;;3.92;1.55;;;11.90;99.90;;;;;;5064622;28;20036;-79
2023/08/09 02:33:12;;;;;;;6.25;1.90;;;11.80;99.90;;;;;;5067763;28;20630;-79
2023/08/09 02:35:53;;;;;;;4.80;1.70;;;11.80;99.90;;;;;;5049700;28;20044;-79
2023/08/09 02:38:20;;;;;;;5.82;1.92;;;11.90;99.90;;;;;;5067347;28;20086;-79
2023/08/09 02:40:45;;;;;;;6.03;1.70;;;11.90;99.90;;;;;;5062209;28;20104;-80
2023/08/09 02:43:11;;;;;;;8.73;2.03;;;11.90;99.90;;;;;;5046426;28;20098;-79
2023/08/09 02:45:37;;;;;;;5.93;1.83;;;11.80;99.90;;;;;;5045066;28;20036;-79
2023/08/09 02:48:03;;;;;;;5.68;1.88;;;11.80;99.90;;;;;;5038919;28;20037;-78
2023/08/09 02:50:29;;;;;;;7.25;1.90;;;11.80;99.90;;;;;;5064615;28;20052;-79
2023/08/09 02:52:55;;;;;;;5.90;1.50;;;11.80;99.90;;;;;;5034252;28;20767;-79
2023/08/09 02:55:21;;;;;;;6.53;2.10;;;11.80;99.90;;;;;;5045116;28;20120;-79
2023/08/09 02:57:46;;;;;;;6.85;1.70;;;12.60;99.90;;;;;;5044257;28;20152;-79
2023/08/09 03:00:16;;;;;;;6.15;1.70;;;11.70;99.90;;;;;;5044698;28;20040;-79
2023/08/09 03:02:42;;;;;;;5.55;1.77;;;11.70;99.90;;;;;;5030803;28;20119;-79
2023/08/09 03:05:08;;;;;;;5.68;1.90;;;11.70;99.90;;;;;;5061476;28;20115;-79
2023/08/09 03:07:35;;;;;;;6.05;1.70;;;11.70;99.90;;;;;;5047332;28;20028;-79
2023/08/09 03:10:03;;;;;;;6.53;1.70;;;11.60;99.90;;;;;;5062656;28;20048;-79
2023/08/09 03:12:29;;;;;;;5.97;1.77;;;11.60;99.90;;;;;;5043911;28;20041;-79
2023/08/09 03:14:55;;;;;;;8.02;1.77;;;11.60;99.90;;;;;;5060989;28;20068;-79
2023/08/09 03:17:21;;;;;;;6.40;1.80;;;11.60;99.90;;;;;;5064360;28;20105;-78
2023/08/09 03:19:46;;;;;;;6.05;1.77;;;11.60;99.90;;;;;;5063940;28;20032;-79
2023/08/09 03:22:12;;;;;;;7.18;1.90;;;11.60;99.90;;;;;;5061856;28;20090;-79
2023/08/09 03:24:38;;;;;;;7.97;1.77;;;11.60;99.90;;;;;;5061433;28;20032;-79
2023/08/09 03:27:04;;;;;;;6.35;2.00;;;11.60;99.90;;;;;;5014044;28;20108;-79
2023/08/09 03:29:30;;;;;;;5.88;1.88;;;11.60;99.90;;;;;;5059934;28;20131;-78
2023/08/09 03:31:56;;;;;;;8.23;1.88;;;11.60;99.90;;;;;;5045090;28;20082;-79
2023/08/09 03:34:21;;;;;;;8.73;1.90;;;11.60;99.90;;;;;;5046236;28;20529;-79
2023/08/09 03:36:47;;;;;;;5.63;1.88;;;11.60;99.90;;;;;;5062656;28;20048;-78
2023/08/09 03:39:13;;;;;;;5.68;1.80;;;11.60;99.90;;;;;;5042406;28;20197;-78
2023/08/09 03:41:40;;;;;;;7.53;1.80;;;11.60;99.90;;;;;;5062493;28;20044;-79
2023/08/09 03:44:06;;;;;;;6.47;2.08;;;11.50;99.90;;;;;;5058492;28;20052;-79
2023/08/09 03:46:32;;;;;;;5.05;2.13;;;11.80;99.90;;;;;;5061243;28;20028;-78
2023/08/09 03:48:58;;;;;;;5.07;1.80;;;11.50;99.90;;;;;;5062670;28;20132;-78
2023/08/09 03:51:24;;;;;;;6.65;1.73;;;11.50;99.90;;;;;;5015550;28;20109;-79
2023/08/09 03:53:50;;;;;;;7.28;2.20;;;11.50;99.90;;;;;;5060827;28;20029;-78
2023/08/09 03:56:16;;;;;;;7.38;1.77;;;11.50;99.90;;;;;;5015873;28;20040;-79
2023/08/09 03:58:41;;;;;;;6.80;1.90;;;11.50;99.90;;;;;;5066023;28;20041;-79
2023/08/09 04:01:08;;;;;;;7.30;2.13;;;11.50;99.90;;;;;;5067031;28;20036;-79
2023/08/09 04:03:33;;;;;;;7.03;1.95;;;11.50;99.90;;;;;;5033153;28;20045;-78
2023/08/09 04:05:59;;;;;;;5.03;1.70;;;11.50;99.90;;;;;;5047724;28;20048;-78
2023/08/09 04:08:27;;;;;;;5.47;1.90;;;11.50;99.90;;;;;;5047100;28;20037;-79
2023/08/09 04:10:54;;;;;;;6.10;1.80;;;11.50;99.90;;;;;;5047518;28;20067;-79
2023/08/09 04:13:21;;;;;;;8.73;2.00;;;11.50;99.90;;;;;;5050157;28;20093;-79
2023/08/09 04:15:46;;;;;;;5.60;1.95;;;11.50;99.90;;;;;;5065993;28;20056;-79
2023/08/09 04:18:14;;;;;;;5.60;1.90;;;11.50;99.90;;;;;;5049581;28;20044;-79
2023/08/09 04:20:40;;;;;;;6.85;2.05;;;11.50;99.90;;;;;;5033204;28;20029;-79
2023/08/09 04:23:06;;;;;;;7.65;2.30;;;11.50;99.90;;;;;;5043416;28;20102;-79
2023/08/09 04:25:32;;;;;;;5.60;1.80;;;11.50;99.90;;;;;;5029129;28;20033;-79
2023/08/09 04:27:59;;;;;;;10.00;2.00;;;11.50;99.90;;;;;;5031342;28;20055;-78
2023/08/09 04:30:25;;;;;;;7.05;2.28;;;11.50;99.90;;;;;;5044597;28;20373;-79
2023/08/09 04:32:52;;;;;;;6.60;1.88;;;11.50;99.90;;;;;;5049655;28;20036;-78
2023/08/09 04:35:18;;;;;;;6.53;1.90;;;11.50;99.90;;;;;;5043928;28;20414;-79
2023/08/09 04:37:44;;;;;;;8.35;2.47;;;11.50;99.90;;;;;;5062922;28;20123;-78
2023/08/09 04:40:11;;;;;;;6.68;1.90;;;11.50;99.90;;;;;;5045756;28;20416;-78
2023/08/09 04:42:38;;;;;;;6.22;1.77;;;11.50;99.90;;;;;;5044065;28;20045;-78
2023/08/09 04:45:07;;;;;;;7.70;2.03;;;11.50;99.90;;;;;;5045953;28;20041;-79
2023/08/09 04:47:32;;;;;;;6.55;1.80;;;11.50;99.90;;;;;;5037020;28;20040;-79
2023/08/09 04:49:58;;;;;;;6.60;1.90;;;11.60;99.90;;;;;;5009529;28;20044;-79
2023/08/09 04:52:24;;;;;;;13.50;2.40;;;11.60;99.90;;;;;;5051992;28;20541;-79
2023/08/09 04:54:50;;;;;;;5.97;1.88;;;11.60;99.90;;;;;;5011461;28;20519;-79
2023/08/09 04:57:15;;;;;;;5.30;1.85;;;11.60;99.90;;;;;;5054743;28;20082;-79
2023/08/09 04:59:41;;;;;;;7.32;2.10;;;11.70;99.90;;;;;;5041086;28;20060;-80
2023/08/09 05:02:07;;;;;;;5.85;1.83;;;11.70;99.90;;;;;;5034789;28;20040;-79
2023/08/09 05:04:32;;;;;;;5.53;1.80;;;11.80;99.90;;;;;;5042321;28;20414;-79
2023/08/09 05:07:00;;;;;;;8.25;2.08;;;11.80;99.90;;;;;;5047846;28;20095;-79
2023/08/09 05:09:26;;;;;;;5.40;1.98;;;11.80;99.90;;;;;;5055621;28;20044;-79
2023/08/09 05:11:52;;;;;;;7.07;2.38;;;11.80;99.90;;;;;;5076483;28;20229;-78
2023/08/09 05:14:18;;;;;;;8.30;2.00;;;11.90;99.90;;;;;;5057486;28;20032;-79
2023/08/09 05:16:43;;;;;;;7.43;1.90;;;12.00;99.90;;;;;;5078252;28;20020;-79
2023/08/09 05:19:09;;;;;;;4.78;1.85;;;12.00;99.90;;;;;;5049097;28;20315;-79
2023/08/09 05:21:35;;;;;;;5.35;1.83;;;12.20;99.90;;;;;;5054048;28;20094;-79
2023/08/09 05:24:01;;;;;;;7.47;1.90;;;12.10;99.90;;;;;;5059828;28;20041;-79
2023/08/09 05:26:26;;;;;;;5.38;1.80;;;12.20;99.90;;;;;;5032108;28;20515;-79
2023/08/09 05:28:52;;;;;;;5.80;1.80;;;12.30;99.90;;;;;;5027642;28;20525;-79
2023/08/09 05:31:18;;;;;;;5.93;1.88;;;12.30;99.90;;;;;;5043842;28;20040;-79
2023/08/09 05:33:43;;;;;;;6.22;1.85;;;12.40;99.90;;;;;;5040080;28;20455;-79
2023/08/09 05:36:09;;;;;;;7.40;2.10;;;12.50;99.90;;;;;;5028029;28;20043;-79
2023/08/09 05:38:35;;;;;;;6.20;1.80;;;12.60;99.90;;;;;;5047509;28;20040;-79
2023/08/09 05:41:01;;;;;;;5.80;1.80;;;12.70;99.90;;;;;;5046531;28;20080;-79
2023/08/09 05:43:27;;;;;;;6.22;1.77;;;12.80;99.90;;;;;;5031782;28;20702;-79
2023/08/09 05:45:52;;;;;;;7.90;1.90;;;12.90;99.90;;;;;;5063875;28;20072;-79
2023/08/09 05:48:18;;;;;;;6.03;1.90;;;13.00;99.90;;;;;;5055943;28;20068;-79
2023/08/09 05:50:44;;;;;;;6.35;1.60;;;13.10;99.90;;;;;;5031488;28;20063;-79
2023/08/09 05:53:10;;;;;;;10.98;2.00;;;13.20;99.90;;;;;;5027869;28;20040;-79
2023/08/09 05:55:36;;;;;;;7.00;1.98;;;13.20;99.90;;;;;;5044709;28;20055;-79
2023/08/09 05:58:03;;;;;;;6.75;1.75;;;13.30;99.90;;;;;;5045397;28;20142;-79
2023/08/09 06:00:28;;;;;;;4.70;1.60;;;13.40;99.90;;;;;;5062353;28;20090;-79
2023/08/09 06:02:54;;;;;;;4.95;1.65;;;13.50;99.90;;;;;;5063288;28;20036;-79
2023/08/09 06:05:25;;;;;;;5.57;1.83;;;13.60;99.90;;;;;;5046212;28;20067;-79
2023/08/09 06:07:52;;;;;;;8.52;1.90;;;13.70;99.90;;;;;;5063976;28;20043;-79
2023/08/09 06:10:20;;;;;;;11.60;2.03;;;13.80;99.90;;;;;;5048859;28;20040;-79
2023/08/09 06:12:46;;;;;;;4.82;1.63;;;13.90;99.90;;;;;;5047758;28;20119;-79
2023/08/09 06:15:12;;;;;;;6.05;1.73;;;14.00;99.90;;;;;;5047216;28;20047;-79
2023/08/09 06:17:38;;;;;;;5.70;1.65;;;14.10;99.90;;;;;;5061414;28;20036;-79
2023/08/09 06:20:05;;;;;;;5.28;1.90;;;14.20;99.90;;;;;;5045429;28;20047;-79
2023/08/09 06:22:31;;;;;;;5.88;1.75;;;14.30;99.90;;;;;;5049866;28;20128;-79
2023/08/09 06:24:57;;;;;;;5.68;1.45;;;14.40;99.90;;;;;;5034519;28;20028;-79
2023/08/09 06:27:22;;;;;;;5.07;1.52;;;14.50;99.90;;;;;;5049585;28;20070;-79
2023/08/09 06:29:48;;;;;;;7.30;1.63;;;14.60;99.90;;;;;;5056701;28;20063;-79
2023/08/09 06:32:14;;;;;;;3.85;1.42;;;14.70;99.90;;;;;;5057778;28;20111;-79
2023/08/09 06:34:39;;;;;;;4.22;1.48;;;14.80;99.90;;;;;;5070889;28;20209;-79
2023/08/09 06:37:05;;;;;;;4.57;1.67;;;14.90;99.90;;;;;;5027716;28;20167;-79
2023/08/09 06:39:33;;;;;;;4.28;1.35;;;15.10;99.90;;;;;;5043770;28;20296;-78
2023/08/09 06:41:59;;;;;;;5.28;1.55;;;15.20;99.90;;;;;;5052475;28;20089;-79
2023/08/09 06:44:25;;;;;;;2.97;1.38;;;15.20;99.90;;;;;;5059803;28;20208;-79
2023/08/09 06:46:53;;;;;;;5.20;1.60;;;15.30;99.90;;;;;;5060652;28;20293;-79
2023/08/09 06:49:22;;;;;;;4.75;1.40;;;15.50;99.90;;;;;;5059803;28;20054;-79
2023/08/09 06:51:48;;;;;;;4.70;1.50;;;15.60;99.90;;;;;;5056520;28;20031;-79
2023/08/09 06:54:14;;;;;;;7.20;1.90;;;15.70;99.90;;;;;;5053264;28;20044;-79
2023/08/09 06:56:41;;;;;;;5.15;1.50;;;16.20;99.90;;;;;;5072588;28;20092;-79
2023/08/09 06:59:07;;;;;;;4.97;1.70;;;15.90;99.90;;;;;;5079179;28;20042;-78
2023/08/09 07:01:32;;;;;;;5.03;1.80;;;16.00;99.90;;;;;;5058980;28;20029;-78
2023/08/09 07:03:58;;;;;;;7.57;1.98;;;16.10;99.90;;;;;;5077250;28;20257;-79
2023/08/09 07:06:24;;;;;;;6.30;1.80;;;16.20;99.90;;;;;;5074984;27;20096;-79
2023/08/09 07:08:53;;;;;;;6.57;1.90;;;16.90;99.90;;;;;;5049583;28;20126;-79
2023/08/09 07:11:20;;;;;;;4.75;1.50;;;16.40;99.90;;;;;;5061568;28;20281;-79
2023/08/09 07:13:46;;;;;;;5.55;1.70;;;16.50;99.90;;;;;;5058953;28;20032;-79
2023/08/09 07:16:12;;;;;;;4.75;1.40;;;16.60;99.90;;;;;;5064866;28;20051;-79
2023/08/09 07:18:37;;;;;;;5.20;1.60;;;16.70;99.90;;;;;;5063699;28;20027;-79
2023/08/09 07:21:04;;;;;;;4.47;1.40;;;16.80;99.90;;;;;;5043605;28;20385;-79
2023/08/09 07:23:31;;;;;;;6.13;1.50;;;16.90;99.90;;;;;;5075213;28;20065;-79
2023/08/09 07:25:57;;;;;;;4.82;1.58;;;17.00;99.90;;;;;;5057234;28;20113;-79
2023/08/09 07:28:23;;;;;;;4.90;1.50;;;17.10;99.90;;;;;;5061994;28;20115;-79
2023/08/09 07:30:52;;;;;;;4.43;1.40;;;17.20;99.90;;;;;;5045719;28;20274;-78
2023/08/09 07:33:21;;;;;;;5.03;1.60;;;17.30;99.90;;;;;;5044309;28;20313;-78
2023/08/09 07:35:48;;;;;;;5.93;1.60;;;17.30;99.90;;;;;;5054248;28;20024;-78
2023/08/09 07:38:15;;;;;;;4.45;1.40;;;17.50;99.90;;;;;;5052410;28;20052;-78
2023/08/09 07:40:41;;;;;;;5.68;1.67;;;17.50;99.90;;;;;;5076483;28;20157;-78
2023/08/09 07:43:07;;;;;;;3.55;1.50;;;17.60;99.90;;;;;;5040273;28;20036;-78
2023/08/09 07:45:33;;;;;;;5.53;1.42;;;17.70;99.90;;;;;;5039054;28;20028;-79
2023/08/09 07:47:59;;;;;;;5.35;1.60;;;17.80;99.90;;;;;;5053229;28;20032;-78
2023/08/09 07:50:25;;;;;;;3.83;1.20;;;17.80;99.90;;;;;;5059209;28;20050;-79
2023/08/09 07:52:51;;;;;;;5.57;1.58;;;17.90;99.90;;;;;;5061815;28;20266;-79
2023/08/09 07:55:18;;;;;;;3.10;1.40;;;18.00;99.90;;;;;;5071024;28;20040;-79
2023/08/09 07:57:44;;;;;;;3.53;1.40;;;18.10;99.90;;;;;;5040915;28;20079;-78
2023/08/09 08:00:16;;;;;;;4.55;1.50;;;18.20;99.90;;;;;;5058346;28;20185;-78
2023/08/09 08:02:44;;;;;;;3.72;1.30;;;18.30;99.90;;;;;;5060556;28;20027;-78
2023/08/09 08:05:13;;;;;;;5.80;1.40;;;18.30;99.90;;;;;;5081431;28;20105;-79
2023/08/09 08:07:40;;;;;;;3.80;1.42;;;18.40;99.90;;;;;;5076021;28;20024;-79
2023/08/09 08:10:13;;;;;;;3.88;1.40;;;18.50;99.90;;;;;;5041001;28;20032;-78
2023/08/09 08:12:40;;;;;;;4.82;1.15;;;18.60;99.90;;;;;;5063733;28;20032;-79
2023/08/09 08:15:09;;;;;;;6.68;1.60;;;18.60;99.90;;;;;;5082403;28;20362;-79
2023/08/09 08:17:35;;;;;;;5.07;1.30;;;18.70;99.90;;;;;;5077090;28;20044;-79
2023/08/09 08:20:04;;;;;;;5.03;1.40;;;18.80;99.90;;;;;;5076906;28;20068;-79
2023/08/09 08:22:30;;;;;;;5.70;1.50;;;18.90;99.90;;;;;;5057494;28;20059;-79
2023/08/09 08:24:56;;;;;;;5.10;1.48;;;18.90;99.90;;;;;;5067710;28;20242;-79
2023/08/09 08:27:21;;;;;;;3.53;1.35;;;19.00;99.90;;;;;;5073150;28;20035;-79
2023/08/09 08:29:47;;;;;;;5.32;1.38;;;19.00;99.90;;;;;;5042689;28;20059;-78
2023/08/09 08:32:13;;;;;;;5.63;1.55;;;19.00;99.90;;;;;;5060905;28;21323;-79
2023/08/09 08:34:39;;;;;;;1.77;0.85;;;19.10;99.90;;;;;;5052632;28;20032;-79
2023/08/09 08:37:04;;;;;;;6.10;1.30;;;19.20;99.90;;;;;;5077735;28;20107;-78
2023/08/09 08:39:35;;;;;;;6.93;1.52;;;19.20;99.90;;;;;;5074490;28;20043;-78
2023/08/09 08:42:01;;;;;;;4.90;1.27;;;19.30;99.90;;;;;;5069243;28;20262;-78
2023/08/09 08:44:27;;;;;;;3.25;1.10;;;19.20;99.90;;;;;;5044947;28;20024;-78
2023/08/09 08:46:53;;;;;;;5.32;1.38;;;19.20;99.90;;;;;;5076466;28;20299;-78
2023/08/09 08:49:24;;;;;;;3.38;1.20;;;19.20;99.90;;;;;;5059773;28;20281;-79
2023/08/09 08:51:54;;;;;;;4.28;1.40;;;19.30;99.90;;;;;;5059086;28;20097;-79
2023/08/09 08:54:19;;;;;;;3.78;1.08;;;19.50;99.90;;;;;;5074397;28;20044;-78
2023/08/09 08:56:47;;;;;;;4.70;1.30;;;19.60;99.90;;;;;;5056822;28;20095;-79
2023/08/09 08:59:14;;;;;;;4.53;1.13;;;19.50;99.90;;;;;;5081347;28;20042;-79
2023/08/09 09:01:39;;;;;;;7.00;1.50;;;19.20;99.90;;;;;;5063732;28;20027;-78
2023/08/09 09:04:05;;;;;;;4.63;1.45;;;18.90;99.90;;;;;;5078907;28;20039;-79
2023/08/09 09:06:32;;;;;;;3.50;1.35;;;19.10;99.90;;;;;;5086911;28;20100;-78
2023/08/09 09:08:59;;;;;;;4.95;1.38;;;19.20;99.90;;;;;;5078685;28;20024;-78
2023/08/09 09:11:25;;;;;;;3.65;1.30;;;19.40;99.90;;;;;;5060312;28;20047;-78
2023/08/09 09:13:52;;;;;;;5.63;1.30;;;19.60;99.90;;;;;;5076802;28;20131;-78
2023/08/09 09:16:19;;;;;;;3.97;1.10;;;19.70;99.90;;;;;;5078408;28;20125;-78
2023/08/09 09:18:47;;;;;;;4.50;1.50;;;19.90;99.90;;;;;;5077784;28;20032;-78
2023/08/09 09:21:14;;;;;;;4.47;1.20;;;19.80;99.90;;;;;;5064173;28;20036;-78
2023/08/09 09:23:40;;;;;;;3.72;1.10;;;19.70;99.90;;;;;;5079436;28;20285;-78
2023/08/09 09:26:18;;;;;;;3.92;1.27;;;19.60;99.90;;;;;;5049620;28;20051;-78
2023/08/09 09:28:45;;;;;;;3.95;1.20;;;19.60;99.90;;;;;;5061223;28;20040;-78
2023/08/09 09:31:13;;;;;;;4.53;1.30;;;19.70;99.90;;;;;;5078144;28;20034;-78
2023/08/09 09:33:43;;;;;;;5.40;1.65;;;20.00;99.90;;;;;;5062037;28;20139;-79
2023/08/09 09:36:12;;;;;;;5.07;1.50;;;20.00;99.90;;;;;;5067166;28;20048;-78
2023/08/09 09:38:39;;;;;;;4.50;1.30;;;19.70;99.90;;;;;;5041242;27;20040;-78
2023/08/09 09:41:07;;;;;;;6.88;1.70;;;19.40;99.90;;;;;;5062881;28;20063;-78
2023/08/09 09:43:39;;;;;;;5.00;1.40;;;19.30;99.90;;;;;;5078221;28;20130;-78
2023/08/09 09:46:25;;;;;;;4.57;1.45;;;19.10;99.90;;;;;;5063254;28;20028;-78
2023/08/09 09:49:05;;;;;;;4.63;1.45;;;18.90;99.90;;;;;;5075125;28;20032;-78
2023/08/09 09:51:31;;;;;;;5.80;1.33;;;18.90;99.90;;;;;;5054243;28;20297;-78
2023/08/09 09:53:57;;;;;;;4.22;1.38;;;18.90;99.90;;;;;;5055547;28;20032;-79
2023/08/09 09:56:22;;;;;;;4.60;1.35;;;19.20;99.90;;;;;;5058818;28;20023;-79
2023/08/09 09:58:48;;;;;;;5.55;1.55;;;19.60;99.90;;;;;;5047202;28;20491;-78
2023/08/09 10:01:22;;;;;;;3.60;1.45;;;19.90;99.90;;;;;;5062847;28;20162;-78
2023/08/09 10:03:53;;;;;;;3.90;1.38;;;19.90;99.90;;;;;;5055803;28;20033;-78
2023/08/09 10:06:27;;;;;;;4.70;1.40;;;19.80;99.90;;;;;;5071493;28;20037;-79
2023/08/09 10:08:56;;;;;;;3.60;1.38;;;19.60;99.90;;;;;;5074909;28;20028;-78
2023/08/09 10:11:23;;;;;;;6.50;1.38;;;19.30;99.90;;;;;;5068708;28;20078;-78
2023/08/09 10:13:50;;;;;;;6.00;1.52;;;19.20;99.90;;;;;;5062841;28;20075;-78
2023/08/09 10:16:19;;;;;;;3.35;1.20;;;19.20;99.90;;;;;;5064150;28;20081;-78
2023/08/09 10:18:52;;;;;;;3.72;1.30;;;19.80;99.90;;;;;;5062292;28;20028;-79
2023/08/09 10:21:19;;;;;;;4.45;1.50;;;19.80;99.90;;;;;;5062775;28;20093;-79
2023/08/09 10:24:06;;;;;;;3.30;1.25;;;20.10;99.90;;;;;;5062106;28;20107;-79
2023/08/09 10:26:35;;;;;;;3.40;1.33;;;20.20;99.90;;;;;;5059117;28;20054;-79
2023/08/09 10:29:12;;;;;;;4.43;1.20;;;20.70;99.90;;;;;;5059406;28;20039;-79
2023/08/09 10:31:44;;;;;;;3.28;1.15;;;20.70;99.90;;;;;;5056532;28;20032;-78
2023/08/09 10:34:11;;;;;;;4.15;1.40;;;20.90;99.90;;;;;;5053178;28;20032;-78
2023/08/09 10:36:36;;;;;;;3.88;1.33;;;21.10;99.90;;;;;;5048038;28;20085;-78
2023/08/09 10:39:12;;;;;;;3.88;1.45;;;21.30;99.90;;;;;;5071182;28;20386;-78
2023/08/09 10:41:38;;;;;;;4.32;1.40;;;21.10;99.90;;;;;;5057052;28;20064;-78
2023/08/09 10:44:04;;;;;;;4.28;1.42;;;20.80;99.90;;;;;;5078494;28;20040;-78
2023/08/09 10:46:34;;;;;;;5.32;1.30;;;20.60;99.90;;;;;;5044424;28;20281;-78
2023/08/09 10:49:00;;;;;;;4.35;1.63;;;20.30;99.90;;;;;;5078628;28;20031;-78
2023/08/09 10:51:26;;;;;;;6.32;1.40;;;20.10;99.90;;;;;;5074132;28;20387;-78
2023/08/09 10:53:57;;;;;;;4.50;1.50;;;19.80;99.90;;;;;;5056760;28;20158;-78
2023/08/09 10:56:37;;;;;;;5.68;1.27;;;20.00;99.90;;;;;;5068924;28;20024;-79
2023/08/09 10:59:13;;;;;;;4.70;1.50;;;19.90;99.90;;;;;;5070929;28;20040;-79
2023/08/09 11:01:40;;;;;;;5.40;1.67;;;20.00;99.90;;;;;;5074634;28;20053;-78
2023/08/09 11:04:14;;;;;;;7.10;1.83;;;20.30;99.90;;;;;;5077501;28;20090;-78
2023/08/09 11:06:42;;;;;;;2.92;1.25;;;20.30;99.90;;;;;;5065807;27;20099;-79
2023/08/09 11:09:12;;;;;;;2.40;1.10;;;20.10;99.90;;;;;;5059254;28;20028;-78
2023/08/09 11:11:40;;;;;;;3.92;1.25;;;20.00;99.90;;;;;;5078745;28;20100;-79
2023/08/09 11:14:07;;;;;;;4.28;1.38;;;20.20;99.90;;;;;;5091230;28;20035;-79
2023/08/09 11:16:33;;;;;;;3.28;1.40;;;20.60;99.90;;;;;;5074661;28;20048;-79
2023/08/09 11:19:09;;;;;;;4.63;1.35;;;21.00;99.90;;;;;;5076118;28;20055;-79
2023/08/09 11:21:46;;;;;;;2.88;1.15;;;21.00;99.90;;;;;;5075765;28;20050;-79
2023/08/09 11:24:13;;;;;;;4.07;1.25;;;21.00;99.90;;;;;;5060237;28;20054;-79
2023/08/09 11:26:54;;;;;;;4.22;1.52;;;20.80;99.90;;;;;;5060940;28;20326;-79
2023/08/09 11:29:21;;;;;;;3.15;1.27;;;20.60;99.90;;;;;;5062201;28;20038;-78
2023/08/09 11:31:53;;;;;;;3.38;1.25;;;20.40;99.90;;;;;;5076501;28;20040;-79
2023/08/09 11:34:21;;;;;;;4.37;1.30;;;20.60;99.90;;;;;;5077930;28;20257;-79
2023/08/09 11:36:49;;;;;;;3.08;1.25;;;20.70;99.90;;;;;;5077983;28;20555;-79
2023/08/09 11:39:15;;;;;;;3.97;1.35;;;20.90;99.90;;;;;;5057702;28;20584;-79
2023/08/09 11:41:55;;;;;;;5.85;1.30;;;21.00;99.90;;;;;;5060694;28;20477;-79
2023/08/09 11:44:31;;;;;;;2.63;1.15;;;21.10;99.90;;;;;;5059116;28;20107;-79
2023/08/09 11:46:59;;;;;;;5.05;1.55;;;20.80;99.90;;;;;;5073192;28;20052;-79
2023/08/09 11:49:34;;;;;;;2.90;1.13;;;20.50;99.90;;;;;;5076635;28;20028;-79
2023/08/09 11:52:01;;;;;;;4.10;1.33;;;20.40;99.90;;;;;;5096441;28;20043;-79
2023/08/09 11:54:28;;;;;;;4.07;1.13;;;20.30;99.90;;;;;;5035789;28;20060;-79
2023/08/09 11:56:54;;;;;;;5.85;1.80;;;20.10;99.90;;;;;;5076742;28;20066;-79
2023/08/09 11:59:23;;;;;;;3.33;1.30;;;19.90;99.90;;;;;;5076696;28;20097;-79
2023/08/09 12:01:51;;;;;;;5.43;1.52;;;19.70;99.90;;;;;;5042417;28;20055;-79
2023/08/09 12:04:25;;;;;;;3.47;1.05;;;19.50;99.90;;;;;;5058548;28;20093;-79
2023/08/09 12:06:54;;;;;;;3.60;1.30;;;19.50;99.90;;;;;;5058106;28;20024;-79
2023/08/09 12:09:40;;;;;;;6.93;1.55;;;19.70;99.90;;;;;;5069197;28;20055;-78
2023/08/09 12:12:15;;;;;;;3.35;1.23;;;19.70;99.90;;;;;;5075339;28;20024;-78
2023/08/09 12:14:47;;;;;;;5.05;1.40;;;19.60;99.90;;;;;;5073393;28;20032;-79
2023/08/09 12:17:39;;;;;;;6.32;1.77;;;19.50;99.90;;;;;;5061281;28;20108;-79
2023/08/09 12:20:06;;;;;;;5.15;1.50;;;19.30;99.90;;;;;;5060626;28;20093;-79
2023/08/09 12:22:33;;;;;;;4.78;1.60;;;19.20;99.90;;;;;;5049327;28;20101;-79
2023/08/09 12:24:59;;;;;;;4.47;1.40;;;19.20;99.90;;;;;;5060774;28;20036;-80
2023/08/09 12:27:25;;;;;;;5.15;1.55;;;19.20;99.90;;;;;;5064157;28;20020;-80
2023/08/09 12:29:51;;;;;;;3.17;1.50;;;19.10;99.90;;;;;;5063371;28;20189;-79
2023/08/09 12:32:17;;;;;;;4.35;1.50;;;19.10;99.90;;;;;;5046310;28;20024;-79
2023/08/09 12:34:43;;;;;;;5.30;1.40;;;19.10;99.90;;;;;;5066543;28;20265;-79
2023/08/09 12:37:09;;;;;;;3.63;1.30;;;19.30;99.90;;;;;;5041949;28;20024;-79
2023/08/09 12:39:35;;;;;;;4.53;1.40;;;19.50;99.90;;;;;;5044156;28;20095;-78
2023/08/09 12:42:02;;;;;;;4.30;1.40;;;19.70;99.90;;;;;;5060569;28;20044;-79
2023/08/09 12:44:28;;;;;;;5.50;1.55;;;19.90;99.90;;;;;;5077557;28;20112;-78
2023/08/09 12:46:54;;;;;;;5.28;1.40;;;20.00;99.90;;;;;;5074588;28;20047;-79